Time;durP1;ratioP1;P1;durP2;ratioP2;P2;SDS_P1;SDS_P2;PMS_P1;PMS_P2;Temp;Humidity;BMP_temperature;BMP_pressure;BME280_temperature;BME280_humidity;BME280_pressure;Samples;Min_cycle;Max_cycle;Signal;HPM_P1;HPM_P2
2023/07/30 00:02:16;;;;;;;11.02;2.92;;;;;;;;;;4977079;28;20246;-72
2023/07/30 00:04:42;;;;;;;13.73;3.60;;;;;;;;;;4987934;28;20183;-72
2023/07/30 00:07:07;;;;;;;8.68;2.65;;;;;;;;;;4987296;28;20493;-72
2023/07/30 00:09:32;;;;;;;9.00;3.00;;;;;;;;;;4981603;28;20743;-72
2023/07/30 00:11:58;;;;;;;10.88;3.10;;;;;;;;;;4985401;28;20184;-72
2023/07/30 00:14:23;;;;;;;9.48;3.10;;;;;;;;;;4979400;28;20210;-72
2023/07/30 00:16:49;;;;;;;12.88;3.28;;;;;;;;;;4983272;28;20217;-72
2023/07/30 00:19:14;;;;;;;11.20;2.75;;;;;;;;;;4983504;28;20220;-72
2023/07/30 00:21:39;;;;;;;10.88;2.90;;;;;;;;;;4986972;28;20211;-72
2023/07/30 00:24:05;;;;;;;7.30;3.25;;;;;;;;;;4991995;28;20206;-72
2023/07/30 00:26:30;;;;;;;14.15;3.33;;;;;;;;;;4987002;28;20191;-72
2023/07/30 00:28:56;;;;;;;10.73;3.53;;;;;;;;;;4975606;28;20227;-72
2023/07/30 00:31:21;;;;;;;7.60;2.78;;;;;;;;;;4987143;28;20187;-71
2023/07/30 00:33:46;;;;;;;9.65;3.60;;;;;;;;;;4986717;28;20223;-72
2023/07/30 00:36:12;;;;;;;11.40;3.70;;;;;;;;;;4989116;28;20213;-72
2023/07/30 00:38:37;;;;;;;9.18;3.95;;;;;;;;;;4984261;28;20200;-72
2023/07/30 00:41:02;;;;;;;14.63;4.20;;;;;;;;;;4975546;28;20216;-72
2023/07/30 00:43:28;;;;;;;11.32;4.25;;;;;;;;;;4976789;28;20195;-72
2023/07/30 00:45:54;;;;;;;14.23;4.72;;;;;;;;;;4992756;28;20223;-72
2023/07/30 00:48:20;;;;;;;17.98;4.75;;;;;;;;;;4988586;28;20206;-72
2023/07/30 00:50:45;;;;;;;15.27;4.22;;;;;;;;;;4981765;28;20605;-72
2023/07/30 00:53:14;;;;;;;12.32;4.40;;;;;;;;;;4991593;28;20191;-72
2023/07/30 00:55:40;;;;;;;13.75;4.65;;;;;;;;;;4984237;28;20274;-72
2023/07/30 00:58:05;;;;;;;11.98;4.72;;;;;;;;;;4983643;28;20192;-72
2023/07/30 01:00:31;;;;;;;16.63;4.82;;;;;;;;;;4977442;28;20208;-72
2023/07/30 01:02:57;;;;;;;14.27;5.60;;;;;;;;;;4983520;28;20192;-72
2023/07/30 01:05:22;;;;;;;13.45;5.30;;;;;;;;;;4992277;28;20748;-72
2023/07/30 01:07:48;;;;;;;14.90;6.10;;;;;;;;;;4988799;28;20686;-72
2023/07/30 01:10:14;;;;;;;12.50;5.40;;;;;;;;;;4976170;28;20254;-72
2023/07/30 01:12:40;;;;;;;11.70;5.03;;;;;;;;;;4989294;28;20686;-72
2023/07/30 01:15:07;;;;;;;16.70;5.10;;;;;;;;;;4981609;28;20207;-72
2023/07/30 01:17:33;;;;;;;12.50;5.38;;;;;;;;;;4991558;28;20227;-73
2023/07/30 01:19:58;;;;;;;11.70;4.68;;;;;;;;;;4975458;28;20204;-72
2023/07/30 01:22:24;;;;;;;14.40;4.78;;;;;;;;;;4984188;28;20716;-72
2023/07/30 01:24:49;;;;;;;12.60;5.43;;;;;;;;;;4981608;28;20195;-72
2023/07/30 01:27:25;;;;;;;9.68;4.88;;;;;;;;;;4994846;28;20279;-72
2023/07/30 01:29:54;;;;;;;10.15;4.72;;;;;;;;;;4991671;28;20202;-72
2023/07/30 01:32:24;;;;;;;12.10;5.07;;;;;;;;;;5008904;28;20186;-72
2023/07/30 01:34:56;;;;;;;14.13;5.15;;;;;;;;;;5007865;28;20195;-73
2023/07/30 01:37:22;;;;;;;13.27;5.15;;;;;;;;;;5002558;28;20281;-71
2023/07/30 01:39:48;;;;;;;11.63;5.20;;;;;;;;;;5014417;28;20261;-71
2023/07/30 01:42:14;;;;;;;15.63;5.43;;;;;;;;;;5011239;28;20187;-71
2023/07/30 01:44:40;;;;;;;14.82;5.57;;;;;;;;;;5010922;28;20191;-72
2023/07/30 01:47:05;;;;;;;10.15;5.25;;;;;;;;;;5013708;28;20301;-72
2023/07/30 01:49:31;;;;;;;12.30;5.28;;;;;;;;;;5014604;28;20187;-72
2023/07/30 01:51:56;;;;;;;17.50;5.65;;;;;;;;;;5022329;28;20604;-73
2023/07/30 01:54:22;;;;;;;13.30;4.78;;;;;;;;;;4995286;28;20198;-72
2023/07/30 01:56:47;;;;;;;13.05;5.38;;;;;;;;;;4999013;28;20591;-72
2023/07/30 01:59:13;;;;;;;14.13;5.68;;;;;;;;;;5003006;28;20188;-72
2023/07/30 02:01:38;;;;;;;15.65;5.50;;;;;;;;;;5007615;28;20321;-72
2023/07/30 02:04:04;;;;;;;15.07;5.38;;;;;;;;;;5016567;28;20221;-71
2023/07/30 02:06:29;;;;;;;12.05;5.07;;;;;;;;;;5006042;28;20682;-71
2023/07/30 02:08:54;;;;;;;12.15;5.20;;;;;;;;;;5013414;28;20188;-71
2023/07/30 02:11:20;;;;;;;14.85;5.97;;;;;;;;;;4988650;28;20659;-71
2023/07/30 02:13:45;;;;;;;14.60;5.93;;;;;;;;;;4999980;28;20238;-71
2023/07/30 02:16:10;;;;;;;13.40;4.43;;;;;;;;;;5007728;28;20823;-71
2023/07/30 02:18:36;;;;;;;13.35;4.75;;;;;;;;;;4978741;28;20214;-72
2023/07/30 02:21:02;;;;;;;13.13;5.45;;;;;;;;;;5004022;28;20218;-72
2023/07/30 02:23:27;;;;;;;12.95;4.97;;;;;;;;;;5011938;28;20233;-72
2023/07/30 02:25:53;;;;;;;13.65;5.05;;;;;;;;;;5002748;28;20183;-72
2023/07/30 02:28:18;;;;;;;11.75;4.95;;;;;;;;;;5007825;28;20322;-72
2023/07/30 02:30:43;;;;;;;11.30;4.63;;;;;;;;;;4996999;28;20187;-72
2023/07/30 02:33:09;;;;;;;17.20;5.30;;;;;;;;;;4990979;28;20195;-72
2023/07/30 02:35:34;;;;;;;13.93;5.30;;;;;;;;;;5008224;28;20190;-72
2023/07/30 02:37:59;;;;;;;12.00;4.80;;;;;;;;;;4993038;28;20227;-72
2023/07/30 02:40:25;;;;;;;17.98;5.55;;;;;;;;;;5020924;28;20621;-72
2023/07/30 02:42:50;;;;;;;15.05;4.90;;;;;;;;;;4982106;28;20274;-72
2023/07/30 02:45:16;;;;;;;14.80;5.40;;;;;;;;;;5017742;28;20295;-72
2023/07/30 02:47:41;;;;;;;18.10;5.15;;;;;;;;;;5014768;28;20630;-72
2023/07/30 02:50:08;;;;;;;12.10;4.22;;;;;;;;;;4997608;28;20190;-72
2023/07/30 02:52:34;;;;;;;7.95;4.68;;;;;;;;;;5000393;28;20198;-72
2023/07/30 02:54:59;;;;;;;9.38;4.10;;;;;;;;;;4982798;28;20575;-72
2023/07/30 02:57:24;;;;;;;15.52;4.50;;;;;;;;;;5014729;28;20190;-72
2023/07/30 02:59:50;;;;;;;14.43;4.78;;;;;;;;;;5013578;28;20198;-72
2023/07/30 03:02:15;;;;;;;12.50;4.88;;;;;;;;;;4988913;28;20258;-72
2023/07/30 03:04:40;;;;;;;12.70;5.32;;;;;;;;;;4997548;28;20206;-72
2023/07/30 03:07:06;;;;;;;14.65;4.72;;;;;;;;;;5008318;28;20560;-72
2023/07/30 03:09:32;;;;;;;16.48;5.47;;;;;;;;;;5002765;28;20240;-72
2023/07/30 03:11:57;;;;;;;17.50;4.90;;;;;;;;;;5005833;28;20670;-71
2023/07/30 03:14:23;;;;;;;10.88;4.72;;;;;;;;;;5000938;28;20226;-71
2023/07/30 03:16:48;;;;;;;11.15;4.78;;;;;;;;;;5001858;28;20214;-72
2023/07/30 03:19:14;;;;;;;14.68;4.72;;;;;;;;;;5008724;28;20392;-73
2023/07/30 03:21:40;;;;;;;11.30;5.10;;;;;;;;;;5003544;28;20685;-72
2023/07/30 03:24:05;;;;;;;13.98;4.75;;;;;;;;;;5008742;28;20190;-71
2023/07/30 03:26:31;;;;;;;10.27;4.63;;;;;;;;;;4998450;28;20325;-71
2023/07/30 03:28:56;;;;;;;16.98;5.35;;;;;;;;;;5002675;28;20330;-72
2023/07/30 03:31:21;;;;;;;16.40;4.55;;;;;;;;;;4985582;28;20198;-72
2023/07/30 03:33:47;;;;;;;11.90;4.30;;;;;;;;;;4989866;28;20680;-72
2023/07/30 03:36:13;;;;;;;11.35;4.40;;;;;;;;;;4990005;28;20218;-72
2023/07/30 03:38:39;;;;;;;14.57;4.80;;;;;;;;;;4982674;28;20187;-72
2023/07/30 03:41:08;;;;;;;13.57;4.63;;;;;;;;;;4988226;28;20350;-72
2023/07/30 03:43:34;;;;;;;15.45;4.38;;;;;;;;;;4989600;28;20533;-72
2023/07/30 03:46:00;;;;;;;12.77;4.63;;;;;;;;;;4990848;28;20187;-72
2023/07/30 03:48:26;;;;;;;18.92;5.13;;;;;;;;;;4987011;28;20206;-72
2023/07/30 03:50:52;;;;;;;17.10;4.85;;;;;;;;;;4990520;28;20207;-71
2023/07/30 03:53:18;;;;;;;17.67;5.32;;;;;;;;;;4998644;28;20646;-73
2023/07/30 03:55:43;;;;;;;12.55;5.70;;;;;;;;;;4984904;28;20215;-72
2023/07/30 03:58:09;;;;;;;12.38;5.10;;;;;;;;;;4997370;28;20274;-71
2023/07/30 04:00:34;;;;;;;14.32;5.63;;;;;;;;;;4990424;28;20752;-71
2023/07/30 04:02:59;;;;;;;16.85;5.88;;;;;;;;;;4981816;28;20350;-73
2023/07/30 04:05:25;;;;;;;13.10;5.45;;;;;;;;;;4987604;28;20195;-71
2023/07/30 04:07:50;;;;;;;22.67;5.22;;;;;;;;;;4990488;28;20565;-72
2023/07/30 04:10:16;;;;;;;13.88;5.57;;;;;;;;;;4994576;28;20195;-72
2023/07/30 04:12:41;;;;;;;15.57;6.25;;;;;;;;;;4982022;28;20247;-72
2023/07/30 04:15:07;;;;;;;18.77;5.72;;;;;;;;;;4973950;28;20266;-72
2023/07/30 04:17:34;;;;;;;15.80;5.25;;;;;;;;;;4984674;28;20227;-72
2023/07/30 04:19:59;;;;;;;14.63;5.82;;;;;;;;;;4974482;28;20208;-72
2023/07/30 04:22:24;;;;;;;13.35;5.90;;;;;;;;;;4986912;28;20192;-72
2023/07/30 04:24:50;;;;;;;16.90;6.10;;;;;;;;;;4989746;28;20227;-72
2023/07/30 04:27:15;;;;;;;15.55;5.90;;;;;;;;;;4981039;28;20188;-71
2023/07/30 04:29:40;;;;;;;19.10;6.50;;;;;;;;;;5003641;28;20210;-72
2023/07/30 04:32:06;;;;;;;20.75;6.45;;;;;;;;;;5004952;28;20213;-72
2023/07/30 04:34:32;;;;;;;14.50;6.40;;;;;;;;;;4999217;28;20206;-72
2023/07/30 04:36:57;;;;;;;14.27;5.20;;;;;;;;;;5011438;28;20187;-72
2023/07/30 04:39:22;;;;;;;21.58;6.68;;;;;;;;;;5012283;28;20198;-72
2023/07/30 04:41:48;;;;;;;14.77;5.78;;;;;;;;;;5011359;28;20254;-72
2023/07/30 04:44:14;;;;;;;20.52;6.40;;;;;;;;;;5009842;28;20223;-72
2023/07/30 04:46:39;;;;;;;19.17;6.25;;;;;;;;;;5013722;28;20195;-73
2023/07/30 04:49:05;;;;;;;17.38;6.10;;;;;;;;;;5014225;28;20202;-73
2023/07/30 04:51:30;;;;;;;14.50;5.78;;;;;;;;;;5011864;28;20265;-71
2023/07/30 04:53:55;;;;;;;20.90;6.05;;;;;;;;;;5011779;28;20192;-72
2023/07/30 04:56:21;;;;;;;19.50;6.55;;;;;;;;;;5001555;28;20230;-70
2023/07/30 04:58:46;;;;;;;19.42;7.30;;;;;;;;;;5021525;28;20266;-72
2023/07/30 05:01:12;;;;;;;17.30;6.35;;;;;;;;;;4994016;28;20203;-73
2023/07/30 05:03:37;;;;;;;18.85;6.28;;;;;;;;;;4999823;28;20207;-73
2023/07/30 05:06:03;;;;;;;26.73;6.70;;;;;;;;;;5010681;28;20198;-72
2023/07/30 05:08:28;;;;;;;16.27;6.13;;;;;;;;;;5012743;28;20278;-72
2023/07/30 05:10:53;;;;;;;20.17;6.45;;;;;;;;;;5011358;28;20190;-73
2023/07/30 05:13:19;;;;;;;22.33;6.60;;;;;;;;;;5012891;28;20187;-72
2023/07/30 05:15:44;;;;;;;18.33;6.85;;;;;;;;;;4997363;28;20191;-73
2023/07/30 05:18:10;;;;;;;21.77;6.72;;;;;;;;;;5004428;28;20601;-73
2023/07/30 05:20:35;;;;;;;17.48;6.40;;;;;;;;;;5004069;28;20254;-74
2023/07/30 05:23:02;;;;;;;29.38;7.68;;;;;;;;;;4996408;28;20191;-73
2023/07/30 05:25:27;;;;;;;18.40;6.72;;;;;;;;;;5009120;28;20191;-73
2023/07/30 05:27:53;;;;;;;19.77;7.43;;;;;;;;;;5004710;28;20241;-75
2023/07/30 05:30:18;;;;;;;20.45;8.10;;;;;;;;;;4995198;28;20608;-73
2023/07/30 05:32:43;;;;;;;27.15;8.07;;;;;;;;;;5016703;28;20216;-72
2023/07/30 05:35:09;;;;;;;18.80;7.18;;;;;;;;;;5004374;28;20192;-73
2023/07/30 05:37:34;;;;;;;25.65;8.63;;;;;;;;;;5014704;28;20194;-73
2023/07/30 05:39:59;;;;;;;23.65;8.45;;;;;;;;;;5013855;28;20297;-73
2023/07/30 05:42:25;;;;;;;25.92;9.85;;;;;;;;;;5007688;28;20245;-72
2023/07/30 05:44:50;;;;;;;24.00;8.60;;;;;;;;;;5004118;28;20217;-73
2023/07/30 05:47:16;;;;;;;24.10;8.40;;;;;;;;;;5008060;28;20521;-72
2023/07/30 05:49:41;;;;;;;26.50;9.02;;;;;;;;;;5012552;28;20223;-72
2023/07/30 05:52:06;;;;;;;30.27;9.35;;;;;;;;;;5012405;28;20260;-73
2023/07/30 05:54:32;;;;;;;27.50;9.68;;;;;;;;;;5015482;28;20286;-72
2023/07/30 05:56:57;;;;;;;26.38;9.48;;;;;;;;;;5005543;28;20226;-73
2023/07/30 05:59:22;;;;;;;24.67;9.30;;;;;;;;;;5018315;28;20253;-72
2023/07/30 06:01:48;;;;;;;28.75;11.07;;;;;;;;;;5008639;28;20237;-74
2023/07/30 06:04:13;;;;;;;31.92;10.93;;;;;;;;;;5000958;28;20194;-71
2023/07/30 06:06:38;;;;;;;26.38;10.02;;;;;;;;;;5012106;28;20217;-72
2023/07/30 06:09:04;;;;;;;27.55;11.32;;;;;;;;;;5002975;28;20246;-73
2023/07/30 06:11:29;;;;;;;30.40;12.00;;;;;;;;;;5009915;28;20218;-72
2023/07/30 06:13:55;;;;;;;25.08;10.77;;;;;;;;;;4994310;28;20623;-72
2023/07/30 06:16:20;;;;;;;34.97;11.40;;;;;;;;;;5009448;28;20219;-72
2023/07/30 06:18:46;;;;;;;28.15;11.25;;;;;;;;;;5006401;28;20558;-72
2023/07/30 06:21:11;;;;;;;31.98;11.73;;;;;;;;;;5009895;28;20336;-72
2023/07/30 06:23:37;;;;;;;29.88;11.98;;;;;;;;;;5003719;28;20244;-72
2023/07/30 06:26:02;;;;;;;44.58;13.82;;;;;;;;;;5012190;28;20682;-72
2023/07/30 06:28:27;;;;;;;33.00;11.88;;;;;;;;;;5006563;28;20238;-72
2023/07/30 06:30:53;;;;;;;27.05;12.15;;;;;;;;;;4995037;28;20733;-71
2023/07/30 06:33:18;;;;;;;26.70;11.05;;;;;;;;;;5005858;28;20200;-73
2023/07/30 06:35:43;;;;;;;28.20;11.43;;;;;;;;;;5002330;28;20183;-73
2023/07/30 06:38:09;;;;;;;32.28;12.05;;;;;;;;;;4981592;28;20235;-72
2023/07/30 06:40:34;;;;;;;32.63;12.93;;;;;;;;;;4995227;28;20218;-72
2023/07/30 06:43:00;;;;;;;32.20;12.73;;;;;;;;;;4993016;28;20543;-72
2023/07/30 06:45:25;;;;;;;33.33;12.27;;;;;;;;;;4996026;28;20199;-72
2023/07/30 06:47:51;;;;;;;31.50;11.82;;;;;;;;;;5000085;28;20210;-72
2023/07/30 06:50:16;;;;;;;29.92;12.20;;;;;;;;;;4997527;28;20199;-72
2023/07/30 06:52:42;;;;;;;29.67;11.38;;;;;;;;;;5019701;28;20261;-73
2023/07/30 06:55:07;;;;;;;35.42;12.65;;;;;;;;;;5000344;28;20278;-73
2023/07/30 06:57:33;;;;;;;27.33;11.65;;;;;;;;;;5005165;28;20527;-73
2023/07/30 06:59:58;;;;;;;29.73;12.10;;;;;;;;;;5005462;28;20202;-73
2023/07/30 07:02:24;;;;;;;30.40;10.85;;;;;;;;;;5006713;28;20187;-73
2023/07/30 07:04:50;;;;;;;28.23;11.10;;;;;;;;;;4988184;28;20218;-73
2023/07/30 07:07:15;;;;;;;28.40;11.25;;;;;;;;;;5003327;28;20184;-73
2023/07/30 07:09:40;;;;;;;28.98;10.68;;;;;;;;;;5000861;28;20725;-72
2023/07/30 07:12:06;;;;;;;28.80;10.13;;;;;;;;;;5009333;28;20510;-76
2023/07/30 07:14:32;;;;;;;32.05;11.13;;;;;;;;;;4981900;28;20195;-72
2023/07/30 07:16:57;;;;;;;32.15;11.10;;;;;;;;;;5005417;28;20207;-73
2023/07/30 07:19:23;;;;;;;24.55;10.73;;;;;;;;;;5004963;28;20546;-73
2023/07/30 07:21:48;;;;;;;35.20;10.73;;;;;;;;;;4999272;28;20919;-73
2023/07/30 07:24:13;;;;;;;24.38;9.70;;;;;;;;;;4990845;28;20265;-75
2023/07/30 07:26:39;;;;;;;28.27;10.57;;;;;;;;;;5005647;28;20230;-73
2023/07/30 07:29:04;;;;;;;26.77;9.60;;;;;;;;;;4999086;28;20272;-73
2023/07/30 07:31:29;;;;;;;26.70;9.35;;;;;;;;;;5006454;28;20186;-73
2023/07/30 07:33:55;;;;;;;27.38;9.88;;;;;;;;;;4989367;28;20191;-73
2023/07/30 07:36:20;;;;;;;23.38;9.90;;;;;;;;;;4997440;28;20657;-73
2023/07/30 07:38:46;;;;;;;26.10;9.40;;;;;;;;;;5006169;28;20205;-73
2023/07/30 07:41:17;;;;;;;21.17;8.82;;;;;;;;;;5007209;28;20211;-73
2023/07/30 07:43:43;;;;;;;23.48;9.02;;;;;;;;;;5007433;28;20279;-75
2023/07/30 07:46:13;;;;;;;21.58;8.82;;;;;;;;;;5010560;28;20186;-73
2023/07/30 07:48:40;;;;;;;22.55;8.88;;;;;;;;;;4992278;28;20194;-73
2023/07/30 07:51:06;;;;;;;25.17;9.32;;;;;;;;;;5010189;28;20194;-73
2023/07/30 07:53:31;;;;;;;26.83;9.38;;;;;;;;;;5010124;28;20540;-73
2023/07/30 07:55:56;;;;;;;25.52;8.77;;;;;;;;;;5005620;28;20230;-71
2023/07/30 07:58:22;;;;;;;25.95;9.43;;;;;;;;;;5008818;28;20669;-74
2023/07/30 08:00:47;;;;;;;22.05;8.50;;;;;;;;;;4978185;28;20286;-72
2023/07/30 08:03:13;;;;;;;25.00;7.90;;;;;;;;;;5013154;28;20563;-74
2023/07/30 08:05:38;;;;;;;29.02;9.20;;;;;;;;;;5000979;28;20191;-74
2023/07/30 08:08:03;;;;;;;19.17;8.35;;;;;;;;;;5005524;28;20190;-73
2023/07/30 08:10:29;;;;;;;19.40;8.35;;;;;;;;;;5003283;28;20207;-73
2023/07/30 08:12:54;;;;;;;22.00;9.00;;;;;;;;;;5009262;28;20637;-73
2023/07/30 08:15:20;;;;;;;25.00;8.68;;;;;;;;;;5009024;28;20198;-73
2023/07/30 08:17:45;;;;;;;29.38;8.95;;;;;;;;;;4990947;28;20694;-73
2023/07/30 08:20:11;;;;;;;20.50;8.95;;;;;;;;;;4991649;28;20211;-75
2023/07/30 08:22:36;;;;;;;20.63;8.60;;;;;;;;;;4999515;28;20187;-75
2023/07/30 08:25:02;;;;;;;23.58;8.52;;;;;;;;;;5004612;28;20277;-74
2023/07/30 08:27:28;;;;;;;25.00;8.98;;;;;;;;;;4972104;28;20307;-74
2023/07/30 08:29:53;;;;;;;24.38;8.45;;;;;;;;;;4964137;28;20228;-75
2023/07/30 08:32:18;;;;;;;22.83;8.93;;;;;;;;;;4969088;28;20188;-73
2023/07/30 08:34:44;;;;;;;26.10;8.32;;;;;;;;;;4962514;28;20667;-74
2023/07/30 08:37:09;;;;;;;23.00;7.97;;;;;;;;;;4967953;28;20196;-73
2023/07/30 08:39:34;;;;;;;23.13;8.27;;;;;;;;;;4960457;28;20184;-74
2023/07/30 08:42:00;;;;;;;23.50;7.97;;;;;;;;;;4279785;28;10000797;-74
2023/07/30 08:44:25;;;;;;;20.50;7.68;;;;;;;;;;4958504;28;20215;-74
2023/07/30 08:46:51;;;;;;;20.65;7.78;;;;;;;;;;4966960;28;20196;-73
2023/07/30 08:49:16;;;;;;;17.33;7.13;;;;;;;;;;4945599;28;20197;-73
2023/07/30 08:51:43;;;;;;;14.82;5.63;;;;;;;;;;4965039;28;20189;-73
2023/07/30 08:54:11;;;;;;;20.73;5.63;;;;;;;;;;4966367;28;20198;-74
2023/07/30 08:56:36;;;;;;;20.10;5.72;;;;;;;;;;4972436;28;20200;-74
2023/07/30 08:59:03;;;;;;;14.48;5.40;;;;;;;;;;4969371;28;20553;-73
2023/07/30 09:01:33;;;;;;;18.83;5.55;;;;;;;;;;4967519;28;20227;-73
2023/07/30 09:04:00;;;;;;;14.70;5.38;;;;;;;;;;4969047;28;20216;-73
2023/07/30 09:06:26;;;;;;;19.10;5.72;;;;;;;;;;4969645;28;20651;-73
2023/07/30 09:08:51;;;;;;;17.95;5.90;;;;;;;;;;4966686;28;20184;-73
2023/07/30 09:11:16;;;;;;;15.27;5.35;;;;;;;;;;4952394;28;20208;-73
2023/07/30 09:13:42;;;;;;;14.73;5.78;;;;;;;;;;4969105;28;20306;-73
2023/07/30 09:16:12;;;;;;;18.90;6.07;;;;;;;;;;4963563;28;20201;-74
2023/07/30 09:18:41;;;;;;;13.55;5.03;;;;;;;;;;4969708;28;20227;-73
2023/07/30 09:21:06;;;;;;;16.67;5.57;;;;;;;;;;4957351;28;20235;-73
2023/07/30 09:23:32;;;;;;;21.25;6.15;;;;;;;;;;4974731;28;20195;-73
2023/07/30 09:25:58;;;;;;;13.95;5.55;;;;;;;;;;4975512;28;20204;-73
2023/07/30 09:28:30;;;;;;;13.40;4.82;;;;;;;;;;4980240;28;20238;-72
2023/07/30 09:31:07;;;;;;;18.60;5.10;;;;;;;;;;4981707;28;20226;-73
2023/07/30 09:33:34;;;;;;;15.85;5.05;;;;;;;;;;4985823;28;20223;-73
2023/07/30 09:36:03;;;;;;;15.43;5.32;;;;;;;;;;4973913;28;20283;-74
2023/07/30 09:38:32;;;;;;;18.13;5.13;;;;;;;;;;4991239;28;20196;-73
2023/07/30 09:41:02;;;;;;;14.02;4.88;;;;;;;;;;4984611;28;20207;-73
2023/07/30 09:43:34;;;;;;;14.80;4.40;;;;;;;;;;4991409;28;20647;-74
2023/07/30 09:46:05;;;;;;;15.38;5.10;;;;;;;;;;4983311;28;20275;-74
2023/07/30 09:48:32;;;;;;;10.98;4.00;;;;;;;;;;4986473;28;20195;-73
2023/07/30 09:50:59;;;;;;;18.58;5.30;;;;;;;;;;4988523;28;20265;-73
2023/07/30 09:53:25;;;;;;;12.07;4.63;;;;;;;;;;4989489;28;20200;-74
2023/07/30 09:55:50;;;;;;;19.95;4.97;;;;;;;;;;4994423;28;20655;-73
2023/07/30 09:58:16;;;;;;;16.10;5.55;;;;;;;;;;4983780;28;20639;-73
2023/07/30 10:00:43;;;;;;;13.70;4.55;;;;;;;;;;4989517;28;20302;-73
2023/07/30 10:03:09;;;;;;;12.75;4.47;;;;;;;;;;5003089;28;20194;-73
2023/07/30 10:05:37;;;;;;;14.85;4.47;;;;;;;;;;4991279;28;20191;-73
2023/07/30 10:08:09;;;;;;;12.20;4.38;;;;;;;;;;4295239;28;10000709;-73
2023/07/30 10:10:34;;;;;;;11.98;4.68;;;;;;;;;;4987279;28;20195;-76
2023/07/30 10:13:05;;;;;;;11.82;4.18;;;;;;;;;;4976275;28;20194;-73
2023/07/30 10:15:34;;;;;;;10.63;4.10;;;;;;;;;;4989218;28;20203;-72
2023/07/30 10:17:59;;;;;;;11.75;4.68;;;;;;;;;;4987030;28;20279;-72
2023/07/30 10:20:28;;;;;;;12.18;4.88;;;;;;;;;;4980912;28;20354;-72
2023/07/30 10:22:55;;;;;;;16.17;5.20;;;;;;;;;;5002662;28;20226;-72
2023/07/30 10:25:29;;;;;;;21.80;5.05;;;;;;;;;;4985686;28;20271;-76
2023/07/30 10:27:54;;;;;;;15.35;5.05;;;;;;;;;;4985397;28;20691;-72
2023/07/30 10:30:20;;;;;;;19.10;5.00;;;;;;;;;;4987667;28;20246;-74
2023/07/30 10:32:55;;;;;;;16.30;4.07;;;;;;;;;;4989559;28;20195;-74
2023/07/30 10:35:46;;;;;;;13.15;3.92;;;;;;;;;;4982644;28;20206;-73
2023/07/30 10:38:30;;;;;;;12.30;4.05;;;;;;;;;;4984565;28;20263;-72
2023/07/30 10:41:08;;;;;;;12.68;3.55;;;;;;;;;;4976609;28;20212;-73
2023/07/30 10:43:53;;;;;;;14.57;4.07;;;;;;;;;;4971088;28;20396;-72
2023/07/30 10:46:19;;;;;;;17.67;3.75;;;;;;;;;;4987903;28;20560;-72
2023/07/30 10:48:46;;;;;;;10.77;3.80;;;;;;;;;;4984259;28;20198;-71
2023/07/30 10:51:14;;;;;;;13.75;3.17;;;;;;;;;;4981327;28;20207;-72
2023/07/30 10:53:45;;;;;;;9.77;3.15;;;;;;;;;;4984795;28;20220;-75
2023/07/30 10:56:11;;;;;;;9.90;3.42;;;;;;;;;;4985353;28;20191;-74
2023/07/30 10:58:37;;;;;;;10.68;2.97;;;;;;;;;;5002244;28;20481;-72
2023/07/30 11:01:05;;;;;;;12.30;2.67;;;;;;;;;;4986515;28;20219;-72
2023/07/30 11:03:34;;;;;;;13.10;3.33;;;;;;;;;;4986375;28;20567;-74
2023/07/30 11:06:00;;;;;;;13.75;3.33;;;;;;;;;;4982032;28;20186;-73
2023/07/30 11:08:36;;;;;;;11.38;2.67;;;;;;;;;;4990708;28;20195;-72
2023/07/30 11:11:01;;;;;;;10.23;2.50;;;;;;;;;;4986920;28;20183;-71
2023/07/30 11:13:27;;;;;;;9.55;2.13;;;;;;;;;;4989002;28;20646;-73
2023/07/30 11:15:52;;;;;;;12.73;2.65;;;;;;;;;;4985327;28;20202;-72
2023/07/30 11:18:18;;;;;;;12.30;2.60;;;;;;;;;;4987903;28;20277;-72
2023/07/30 11:20:43;;;;;;;9.05;2.78;;;;;;;;;;4986670;28;20307;-71
2023/07/30 11:23:22;;;;;;;15.38;3.08;;;;;;;;;;4982416;28;20212;-72
2023/07/30 11:25:51;;;;;;;11.25;2.45;;;;;;;;;;4986320;28;20191;-72
2023/07/30 11:28:37;;;;;;;10.88;2.70;;;;;;;;;;4995065;28;20686;-72
2023/07/30 11:31:08;;;;;;;7.85;2.47;;;;;;;;;;5008742;28;20197;-74
2023/07/30 11:33:39;;;;;;;8.80;2.22;;;;;;;;;;5005555;28;20206;-72
2023/07/30 11:36:07;;;;;;;11.35;2.40;;;;;;;;;;5008457;28;20198;-72
2023/07/30 11:38:34;;;;;;;6.60;2.00;;;;;;;;;;4979688;28;20408;-72
2023/07/30 11:41:00;;;;;;;9.95;2.28;;;;;;;;;;5008647;28;20242;-73
2023/07/30 11:43:26;;;;;;;9.93;2.00;;;;;;;;;;5005794;28;20191;-72
2023/07/30 11:46:17;;;;;;;6.18;1.85;;;;;;;;;;5002252;28;20193;-72
2023/07/30 11:48:44;;;;;;;5.65;2.00;;;;;;;;;;4985384;28;20187;-72
2023/07/30 11:51:24;;;;;;;9.50;1.80;;;;;;;;;;4999605;28;20675;-73
2023/07/30 11:53:55;;;;;;;6.13;1.70;;;;;;;;;;4994796;28;20261;-71
2023/07/30 11:56:26;;;;;;;6.47;1.92;;;;;;;;;;5005344;28;20266;-73
2023/07/30 11:58:55;;;;;;;10.23;2.10;;;;;;;;;;4991507;28;20271;-73
2023/07/30 12:01:22;;;;;;;10.05;2.30;;;;;;;;;;5009470;28;20211;-73
2023/07/30 12:03:47;;;;;;;8.43;1.95;;;;;;;;;;4997159;28;20203;-74
2023/07/30 12:06:13;;;;;;;8.38;2.60;;;;;;;;;;4990723;28;20715;-73
2023/07/30 12:08:38;;;;;;;7.47;2.25;;;;;;;;;;4996753;28;20188;-73
2023/07/30 12:11:08;;;;;;;7.38;2.50;;;;;;;;;;4986616;28;20604;-72
2023/07/30 12:13:41;;;;;;;8.82;2.60;;;;;;;;;;5001537;28;20191;-73
2023/07/30 12:16:07;;;;;;;7.90;2.38;;;;;;;;;;5005694;28;20195;-72
2023/07/30 12:18:32;;;;;;;11.25;2.50;;;;;;;;;;5008905;28;20225;-73
2023/07/30 12:20:57;;;;;;;10.07;2.60;;;;;;;;;;4990982;28;20242;-74
2023/07/30 12:23:23;;;;;;;10.27;2.42;;;;;;;;;;5008428;28;20206;-73
2023/07/30 12:25:50;;;;;;;7.30;2.08;;;;;;;;;;5005795;28;20390;-74
2023/07/30 12:28:15;;;;;;;9.38;2.20;;;;;;;;;;5007597;28;20300;-72
2023/07/30 12:30:41;;;;;;;9.90;2.28;;;;;;;;;;5002969;28;20195;-71
2023/07/30 12:33:06;;;;;;;8.07;2.15;;;;;;;;;;5008622;28;20294;-73
2023/07/30 12:35:32;;;;;;;9.50;2.20;;;;;;;;;;5004994;28;20274;-73
2023/07/30 12:38:01;;;;;;;8.60;2.10;;;;;;;;;;5006299;28;20285;-74
2023/07/30 12:40:29;;;;;;;7.03;1.88;;;;;;;;;;5004418;28;20301;-73
2023/07/30 12:42:54;;;;;;;10.20;2.22;;;;;;;;;;5009347;28;20265;-73
2023/07/30 12:45:20;;;;;;;7.30;1.88;;;;;;;;;;5001625;28;20199;-72
2023/07/30 12:47:45;;;;;;;8.32;1.92;;;;;;;;;;5006193;28;20191;-73
2023/07/30 12:50:11;;;;;;;5.22;1.77;;;;;;;;;;5001263;28;20218;-72
2023/07/30 12:52:36;;;;;;;10.07;2.03;;;;;;;;;;4997892;28;20274;-72
2023/07/30 12:55:04;;;;;;;7.43;1.73;;;;;;;;;;4999416;28;20191;-73
2023/07/30 12:57:29;;;;;;;6.85;1.33;;;;;;;;;;4999240;28;20187;-71
2023/07/30 12:59:55;;;;;;;6.20;1.63;;;;;;;;;;5003068;28;20325;-72
2023/07/30 13:02:20;;;;;;;6.60;1.55;;;;;;;;;;5009848;28;20219;-72
2023/07/30 13:04:45;;;;;;;9.45;2.13;;;;;;;;;;5008185;28;20613;-72
2023/07/30 13:07:11;;;;;;;4.50;1.42;;;;;;;;;;4997207;28;20222;-72
2023/07/30 13:09:36;;;;;;;7.32;1.73;;;;;;;;;;5003633;28;20694;-71
2023/07/30 13:12:01;;;;;;;11.27;2.10;;;;;;;;;;5009522;28;20191;-72
2023/07/30 13:14:27;;;;;;;4.95;1.88;;;;;;;;;;4316761;28;10000805;-72
2023/07/30 13:16:52;;;;;;;9.88;3.95;;;;;;;;;;5008030;28;20222;-75
2023/07/30 13:19:18;;;;;;;5.53;1.90;;;;;;;;;;5010346;28;20509;-74
2023/07/30 13:21:43;;;;;;;7.47;1.67;;;;;;;;;;4992338;28;20351;-72
2023/07/30 13:24:08;;;;;;;7.88;1.92;;;;;;;;;;4998725;28;20203;-73
2023/07/30 13:26:35;;;;;;;4.88;1.75;;;;;;;;;;5006491;28;20210;-73
2023/07/30 13:29:01;;;;;;;5.43;1.30;;;;;;;;;;5002872;28;20762;-73
2023/07/30 13:31:26;;;;;;;4.00;1.00;;;;;;;;;;4999355;28;20276;-71
2023/07/30 13:33:52;;;;;;;6.20;1.25;;;;;;;;;;5019620;28;20239;-75
2023/07/30 13:36:17;;;;;;;7.68;1.30;;;;;;;;;;5003690;28;20677;-74
2023/07/30 13:38:43;;;;;;;7.35;1.42;;;;;;;;;;4989455;28;20673;-71
2023/07/30 13:41:09;;;;;;;7.85;1.60;;;;;;;;;;5010309;28;20222;-72
2023/07/30 13:43:35;;;;;;;5.25;1.40;;;;;;;;;;5002434;28;20207;-72
2023/07/30 13:46:00;;;;;;;8.10;1.50;;;;;;;;;;4999819;28;20195;-72
2023/07/30 13:48:26;;;;;;;5.82;1.35;;;;;;;;;;5002468;28;20634;-73
2023/07/30 13:50:51;;;;;;;5.00;1.23;;;;;;;;;;5010521;28;20560;-72
2023/07/30 13:53:17;;;;;;;7.65;1.50;;;;;;;;;;5009086;28;20700;-72
2023/07/30 13:55:43;;;;;;;9.80;1.30;;;;;;;;;;5004721;28;20285;-74
2023/07/30 13:58:09;;;;;;;6.20;1.50;;;;;;;;;;5009292;28;20194;-73
2023/07/30 14:00:34;;;;;;;5.57;1.48;;;;;;;;;;5002093;28;20219;-73
2023/07/30 14:03:00;;;;;;;5.18;1.17;;;;;;;;;;4994285;28;20725;-73
2023/07/30 14:05:27;;;;;;;6.25;1.35;;;;;;;;;;5006197;28;20302;-73
2023/07/30 14:07:53;;;;;;;4.57;1.20;;;;;;;;;;5007401;28;20269;-72
2023/07/30 14:10:19;;;;;;;7.10;1.30;;;;;;;;;;5008449;28;20237;-72
2023/07/30 14:12:44;;;;;;;4.70;1.17;;;;;;;;;;5008119;28;20202;-72
2023/07/30 14:15:10;;;;;;;7.38;1.58;;;;;;;;;;5009776;28;20280;-73
2023/07/30 14:17:35;;;;;;;3.03;1.30;;;;;;;;;;5001099;28;20214;-71
2023/07/30 14:20:01;;;;;;;7.45;1.77;;;;;;;;;;4987617;28;20186;-72
2023/07/30 14:22:26;;;;;;;8.93;1.70;;;;;;;;;;5008414;28;20595;-72
2023/07/30 14:24:51;;;;;;;3.47;1.20;;;;;;;;;;5012940;28;20199;-73
2023/07/30 14:27:17;;;;;;;7.18;1.30;;;;;;;;;;5008246;28;20316;-72